createdAt,value
2019-03-16T00:02:11.012Z,6.44
2019-03-16T00:05:21.514Z,6.42
2019-03-16T00:08:28.548Z,6.56
2019-03-16T00:11:37.124Z,6.48
2019-03-16T00:14:44.179Z,6.50
2019-03-16T00:17:54.148Z,6.46
2019-03-16T00:21:01.214Z,6.38
2019-03-16T00:24:08.249Z,6.35
2019-03-16T00:27:15.291Z,6.28
2019-03-16T00:30:22.277Z,6.23
2019-03-16T00:33:29.161Z,6.23
2019-03-16T00:36:36.674Z,6.28
2019-03-16T00:39:43.739Z,6.23
2019-03-16T00:42:51.287Z,6.20
2019-03-16T00:45:58.234Z,6.20
2019-03-16T00:49:05.410Z,6.21
2019-03-16T00:52:12.418Z,6.20
2019-03-16T00:55:19.323Z,6.20
2019-03-16T00:58:26.258Z,6.11
2019-03-16T01:01:33.356Z,6.05
2019-03-16T01:04:40.314Z,6.10
2019-03-16T01:07:48.367Z,6.08
2019-03-16T01:10:55.657Z,6.18
2019-03-16T01:14:02.711Z,6.18
2019-03-16T01:17:09.833Z,6.16
2019-03-16T01:20:16.798Z,6.03
2019-03-16T01:23:23.690Z,6.07
2019-03-16T01:26:32.334Z,6.07
2019-03-16T01:29:41.339Z,6.07
2019-03-16T01:32:50.780Z,6.10
2019-03-16T01:35:57.809Z,6.06
2019-03-16T01:39:06.320Z,6.06
2019-03-16T01:42:13.269Z,6.00
2019-03-16T01:45:20.260Z,6.03
2019-03-16T01:48:27.238Z,6.05
2019-03-16T01:51:34.261Z,6.08
2019-03-16T01:54:41.197Z,6.04
2019-03-16T01:57:48.240Z,6.01
2019-03-16T02:00:55.373Z,6.08
2019-03-16T02:04:02.389Z,5.98
2019-03-16T02:07:09.453Z,6.05
2019-03-16T02:10:17.116Z,6.07
2019-03-16T02:13:24.131Z,6.07
2019-03-16T02:16:31.238Z,6.04
2019-03-16T02:19:39.237Z,6.04
2019-03-16T02:22:47.451Z,6.09
2019-03-16T02:25:57.740Z,6.08
2019-03-16T02:29:04.867Z,6.08
2019-03-16T02:32:22.929Z,6.07
2019-03-16T02:35:29.888Z,6.06
2019-03-16T02:38:36.848Z,6.08
2019-03-16T02:41:44.007Z,6.07
2019-03-16T02:44:54.047Z,6.08
2019-03-16T02:48:01.059Z,6.05
2019-03-16T02:51:08.009Z,6.04
2019-03-16T02:54:14.923Z,6.09
2019-03-16T02:57:22.046Z,6.04
2019-03-16T03:00:29.014Z,6.12
2019-03-16T03:03:36.057Z,6.12
2019-03-16T03:06:44.357Z,6.04
2019-03-16T03:09:51.380Z,6.02
2019-03-16T03:12:59.883Z,6.03
2019-03-16T03:16:06.888Z,5.99
2019-03-16T03:19:13.807Z,6.02
2019-03-16T03:22:20.812Z,6.10
2019-03-16T03:25:27.817Z,6.07
2019-03-16T03:28:34.819Z,6.05
2019-03-16T03:31:41.954Z,6.06
2019-03-16T03:34:53.431Z,6.02
2019-03-16T03:38:00.475Z,5.98
2019-03-16T03:41:09.090Z,5.98
2019-03-16T03:44:17.287Z,6.00
2019-03-16T03:47:24.304Z,5.97
2019-03-16T03:50:31.528Z,5.99
2019-03-16T03:53:41.152Z,6.01
2019-03-16T03:56:50.163Z,5.99
2019-03-16T03:59:57.193Z,5.98
2019-03-16T04:03:04.744Z,5.97
2019-03-16T04:06:11.744Z,5.94
2019-03-16T04:09:21.223Z,6.00
2019-03-16T04:12:28.275Z,6.00
2019-03-16T04:15:35.679Z,5.96
2019-03-16T04:18:42.759Z,5.95
2019-03-16T04:21:49.787Z,5.92
2019-03-16T04:24:56.846Z,6.00
2019-03-16T04:28:03.777Z,5.95
2019-03-16T04:31:10.900Z,5.93
2019-03-16T04:34:29.014Z,5.92
2019-03-16T04:37:28.258Z,5.88
2019-03-16T04:40:35.195Z,5.90
2019-03-16T04:43:42.205Z,5.90
2019-03-16T04:46:49.658Z,5.88
2019-03-16T04:49:56.508Z,5.87
2019-03-16T04:53:03.513Z,5.87
2019-03-16T04:56:12.630Z,5.90
2019-03-16T04:59:19.569Z,5.81
2019-03-16T05:02:26.484Z,5.86
2019-03-16T05:05:33.659Z,5.80
2019-03-16T05:08:40.458Z,5.86
2019-03-16T05:11:49.289Z,5.84
2019-03-16T05:14:56.377Z,5.78
2019-03-16T05:18:04.510Z,5.77
2019-03-16T05:21:11.466Z,5.82
2019-03-16T05:24:18.489Z,5.83
2019-03-16T05:27:25.344Z,5.80
2019-03-16T05:30:32.353Z,5.86
2019-03-16T05:33:39.220Z,5.85
2019-03-16T05:36:46.570Z,5.82
2019-03-16T05:39:55.140Z,5.77
2019-03-16T05:43:02.130Z,5.82
2019-03-16T05:46:09.079Z,5.78
2019-03-16T05:49:16.018Z,5.74
2019-03-16T05:52:23.047Z,5.68
2019-03-16T05:55:30.075Z,5.68
2019-03-16T05:58:37.012Z,5.65
2019-03-16T06:01:45.035Z,5.65
2019-03-16T06:04:54.992Z,5.69
2019-03-16T06:08:02.016Z,5.61
2019-03-16T06:11:09.060Z,5.63
2019-03-16T06:14:17.394Z,5.56
2019-03-16T06:17:26.001Z,5.57
2019-03-16T06:20:33.416Z,5.53
2019-03-16T06:23:40.411Z,5.49
2019-03-16T06:26:47.414Z,5.46
2019-03-16T06:29:54.367Z,5.38
2019-03-16T06:33:01.389Z,5.40
2019-03-16T06:36:08.313Z,5.45
2019-03-16T06:39:15.361Z,5.43
2019-03-16T06:42:22.223Z,5.47
2019-03-16T06:45:30.300Z,5.48
2019-03-16T06:48:39.499Z,5.36
2019-03-16T06:51:46.758Z,5.33
2019-03-16T06:54:53.641Z,5.38
2019-03-16T06:58:00.640Z,5.35
2019-03-16T07:01:07.586Z,5.34
2019-03-16T07:04:14.594Z,5.36
2019-03-16T07:07:21.584Z,5.38
2019-03-16T07:10:28.645Z,5.34
2019-03-16T07:13:35.533Z,5.32
2019-03-16T07:16:42.620Z,5.38
2019-03-16T07:19:49.626Z,5.29
2019-03-16T07:22:56.846Z,5.33
2019-03-16T07:26:14.295Z,5.26
2019-03-16T07:29:12.540Z,5.26
2019-03-16T07:32:19.453Z,5.38
2019-03-16T07:35:28.065Z,5.37
2019-03-16T07:38:34.878Z,5.32
2019-03-16T07:41:41.775Z,5.44
2019-03-16T07:44:50.429Z,5.39
2019-03-16T07:47:57.581Z,5.42
2019-03-16T07:51:04.444Z,5.50
2019-03-16T07:54:11.562Z,5.47
2019-03-16T07:57:20.871Z,5.47
2019-03-16T08:00:27.908Z,5.42
2019-03-16T08:03:34.960Z,5.34
2019-03-16T08:06:42.695Z,5.36
2019-03-16T08:09:51.779Z,5.55
2019-03-16T08:12:58.718Z,5.31
2019-03-16T08:16:08.477Z,5.33
2019-03-16T08:19:15.466Z,5.39
2019-03-16T08:22:22.413Z,5.51
2019-03-16T08:25:30.456Z,5.53
2019-03-16T08:28:37.596Z,5.56
2019-03-16T08:31:45.594Z,5.52
2019-03-16T08:34:52.507Z,5.43
2019-03-16T08:38:00.513Z,5.52
2019-03-16T08:41:07.551Z,5.62
2019-03-16T08:44:15.074Z,5.61
2019-03-16T08:47:24.021Z,5.78
2019-03-16T08:50:31.526Z,5.71
2019-03-16T08:53:38.533Z,5.72
2019-03-16T08:56:45.556Z,5.73
2019-03-16T08:59:52.532Z,5.83
2019-03-16T09:02:59.546Z,5.73
2019-03-16T09:06:06.694Z,5.61
2019-03-16T09:09:13.719Z,5.70
2019-03-16T09:12:20.756Z,5.74
2019-03-16T09:15:27.824Z,5.74
2019-03-16T09:18:36.023Z,5.78
2019-03-16T09:21:43.011Z,5.71
2019-03-16T09:24:49.945Z,5.88
2019-03-16T09:27:57.335Z,5.78
2019-03-16T09:31:04.239Z,5.72
2019-03-16T09:34:11.322Z,5.83
2019-03-16T09:37:19.566Z,5.77
2019-03-16T09:40:26.600Z,5.67
2019-03-16T09:43:34.782Z,5.67
2019-03-16T09:46:41.827Z,5.70
2019-03-16T09:49:48.847Z,5.66
2019-03-16T09:52:55.800Z,5.59
2019-03-16T09:56:02.843Z,5.70
2019-03-16T09:59:09.897Z,5.78
2019-03-16T10:02:16.977Z,5.77
2019-03-16T10:05:24.010Z,5.80
2019-03-16T10:08:33.837Z,5.93
2019-03-16T10:11:40.860Z,5.88
2019-03-16T10:14:47.915Z,5.91
2019-03-16T10:17:58.098Z,5.94
2019-03-16T10:21:05.104Z,5.92
2019-03-16T10:24:12.160Z,5.91
2019-03-16T10:27:19.128Z,6.13
2019-03-16T10:30:33.609Z,6.07
2019-03-16T10:33:40.509Z,6.10
2019-03-16T10:36:47.498Z,6.10
2019-03-16T10:39:55.115Z,6.05
2019-03-16T10:43:01.948Z,6.09
2019-03-16T10:46:08.952Z,6.18
2019-03-16T10:49:15.998Z,6.13
2019-03-16T10:52:23.115Z,6.28
2019-03-16T10:55:30.184Z,6.26
2019-03-16T10:58:37.238Z,6.28
2019-03-16T11:01:44.510Z,6.28
2019-03-16T11:04:51.528Z,6.14
2019-03-16T11:07:59.502Z,6.33
2019-03-16T11:11:06.582Z,6.43
2019-03-16T11:14:13.641Z,6.34
2019-03-16T11:17:20.742Z,6.48
2019-03-16T11:20:28.011Z,6.55
2019-03-16T11:23:36.086Z,6.57
2019-03-16T11:26:43.247Z,6.60
2019-03-16T11:29:53.408Z,6.73
2019-03-16T11:33:01.518Z,6.73
2019-03-16T11:36:08.479Z,6.86
2019-03-16T11:39:15.456Z,6.98
2019-03-16T11:42:22.542Z,7.10
2019-03-16T11:45:30.654Z,7.21
2019-03-16T11:48:37.672Z,7.18
2019-03-16T11:51:44.716Z,7.24
2019-03-16T11:54:51.654Z,7.37
2019-03-16T11:57:58.684Z,7.49
2019-03-16T12:01:05.722Z,7.63
2019-03-16T12:04:12.694Z,7.67
2019-03-16T12:07:19.750Z,7.79
2019-03-16T12:10:26.825Z,7.90
2019-03-16T12:13:34.329Z,7.84
2019-03-16T12:16:41.341Z,8.06
2019-03-16T12:19:51.202Z,8.27
2019-03-16T12:22:58.882Z,8.30
2019-03-16T12:26:05.843Z,8.38
2019-03-16T12:29:12.862Z,8.41
2019-03-16T12:32:19.783Z,8.53
2019-03-16T12:35:27.295Z,8.63
2019-03-16T12:38:34.274Z,8.76
2019-03-16T12:41:41.284Z,8.78
2019-03-16T12:44:49.227Z,8.93
2019-03-16T12:47:56.200Z,9.29
2019-03-16T12:51:03.123Z,9.24
2019-03-16T12:54:10.038Z,9.27
2019-03-16T12:57:17.004Z,9.30
2019-03-16T13:00:24.039Z,9.53
2019-03-16T13:03:34.133Z,9.62
2019-03-16T13:06:41.095Z,9.70
2019-03-16T13:09:47.919Z,9.71
2019-03-16T13:12:54.937Z,9.86
2019-03-16T13:16:01.909Z,9.93
2019-03-16T13:19:08.807Z,9.86
2019-03-16T13:22:15.833Z,9.89
2019-03-16T13:25:22.867Z,9.89
2019-03-16T13:28:31.933Z,10.02
2019-03-16T13:31:39.110Z,10.29
2019-03-16T13:34:46.053Z,10.53
2019-03-16T13:37:53.400Z,10.63
2019-03-16T13:41:00.293Z,10.36
2019-03-16T13:44:08.468Z,10.41
2019-03-16T13:47:18.218Z,10.27
2019-03-16T13:50:25.286Z,10.34
2019-03-16T13:53:32.856Z,10.18
2019-03-16T13:56:40.246Z,10.07
2019-03-16T13:59:48.278Z,10.11
2019-03-16T14:02:55.275Z,10.02
2019-03-16T14:06:02.322Z,10.06
2019-03-16T14:09:09.741Z,9.98
2019-03-16T14:12:16.696Z,9.84
2019-03-16T14:15:23.748Z,9.92
2019-03-16T14:18:30.737Z,9.86
2019-03-16T14:21:37.725Z,9.81
2019-03-16T14:24:44.658Z,9.78
2019-03-16T14:27:51.697Z,9.87
2019-03-16T14:30:58.716Z,9.91
2019-03-16T14:34:06.485Z,9.82
2019-03-16T14:37:13.509Z,9.79
2019-03-16T14:44:18.508Z,9.91
2019-03-16T14:47:25.488Z,9.81
2019-03-16T14:50:32.494Z,9.75
2019-03-16T14:53:39.400Z,9.85
2019-03-16T14:56:46.432Z,9.77
2019-03-16T15:11:09.950Z,10.03
2019-03-16T15:14:21.939Z,9.92
2019-03-16T15:17:26.391Z,9.96
2019-03-16T15:20:33.707Z,9.98
2019-03-16T15:23:40.730Z,9.89
2019-03-16T15:26:47.705Z,9.81
2019-03-16T15:29:54.759Z,9.81
2019-03-16T15:33:05.329Z,9.80
2019-03-16T15:36:19.170Z,9.81
2019-03-16T15:39:25.964Z,9.83
2019-03-16T15:42:33.369Z,9.72
2019-03-16T15:45:40.345Z,9.73
2019-03-16T15:48:47.544Z,9.69
2019-03-16T15:51:54.606Z,9.68
2019-03-16T15:55:01.547Z,9.54
2019-03-16T15:58:08.808Z,9.57
2019-03-16T16:01:16.010Z,9.53
2019-03-16T16:04:22.856Z,9.58
2019-03-16T16:07:30.031Z,9.47
2019-03-16T16:10:40.551Z,9.47
2019-03-16T16:13:47.081Z,9.45
2019-03-16T16:16:54.291Z,9.49
2019-03-16T16:20:01.343Z,9.48
2019-03-16T16:23:08.538Z,9.41
2019-03-16T16:26:15.653Z,9.51
2019-03-16T16:29:22.608Z,9.47
2019-03-16T16:32:29.672Z,9.41
2019-03-16T16:35:39.576Z,9.41
2019-03-16T16:38:46.897Z,9.41
2019-03-16T16:41:53.945Z,9.37
2019-03-16T16:45:01.811Z,9.38
2019-03-16T16:48:08.841Z,9.49
2019-03-16T16:51:15.846Z,9.47
2019-03-16T16:54:22.811Z,9.38
2019-03-16T16:57:29.808Z,9.41
2019-03-16T17:00:37.364Z,9.37
2019-03-16T17:03:44.635Z,9.37
2019-03-16T17:06:51.554Z,9.39
2019-03-16T17:09:58.594Z,9.34
2019-03-16T17:13:05.631Z,9.38
2019-03-16T17:16:12.733Z,9.32
2019-03-16T17:19:19.716Z,9.32
2019-03-16T17:22:26.713Z,9.32
2019-03-16T17:25:33.706Z,9.29
2019-03-16T17:28:40.896Z,9.30
2019-03-16T17:31:47.860Z,9.27
2019-03-16T17:34:54.875Z,9.27
2019-03-16T17:38:01.823Z,9.31
2019-03-16T17:41:09.380Z,9.28
2019-03-16T17:44:16.425Z,9.29
2019-03-16T17:47:24.034Z,9.26
2019-03-16T17:50:31.153Z,9.24
2019-03-16T17:53:38.335Z,9.25
2019-03-16T17:56:45.288Z,9.25
2019-03-16T17:59:52.420Z,9.25
2019-03-16T18:02:59.343Z,9.28
2019-03-16T18:06:06.894Z,9.23
2019-03-16T18:09:13.899Z,9.23
2019-03-16T18:12:21.156Z,9.27
2019-03-16T18:15:28.021Z,9.22
2019-03-16T18:18:37.739Z,9.17
2019-03-16T18:21:44.929Z,9.18
2019-03-16T18:24:51.835Z,9.10
2019-03-16T18:27:58.860Z,9.16
2019-03-16T18:31:05.884Z,9.11
2019-03-16T18:34:12.888Z,9.09
2019-03-16T18:37:20.286Z,9.11
2019-03-16T18:40:27.855Z,9.11
2019-03-16T18:43:34.903Z,9.14
2019-03-16T18:46:43.430Z,9.10
2019-03-16T18:49:50.883Z,9.11
2019-03-16T18:52:57.880Z,9.10
2019-03-16T18:56:05.014Z,9.04
2019-03-16T18:59:13.151Z,9.06
2019-03-16T19:02:21.022Z,8.99
2019-03-16T19:05:29.404Z,9.06
2019-03-16T19:08:38.728Z,9.06
2019-03-16T19:11:48.698Z,8.98
2019-03-16T19:14:55.654Z,8.97
2019-03-16T19:18:02.543Z,8.88
2019-03-16T19:21:09.646Z,8.84
2019-03-16T19:24:16.656Z,8.90
2019-03-16T19:27:23.667Z,8.92
2019-03-16T19:30:30.628Z,8.93
2019-03-16T19:33:37.975Z,8.93
2019-03-16T19:36:45.188Z,8.92
2019-03-16T19:39:55.597Z,8.89
2019-03-16T19:43:04.974Z,8.88
2019-03-16T19:46:12.237Z,8.88
2019-03-16T19:49:19.247Z,8.83
2019-03-16T19:52:27.303Z,8.79
2019-03-16T19:55:34.346Z,8.81
2019-03-16T19:58:41.285Z,8.85
2019-03-16T20:01:48.297Z,8.75
2019-03-16T20:04:55.258Z,8.76
2019-03-16T20:08:02.174Z,8.73
2019-03-16T20:11:09.162Z,8.74
2019-03-16T20:14:17.689Z,8.71
2019-03-16T20:17:24.616Z,8.68
2019-03-16T20:20:31.617Z,8.69
2019-03-16T20:23:38.961Z,8.68
2019-03-16T20:26:45.858Z,8.65
2019-03-16T20:29:54.529Z,8.64
2019-03-16T20:33:04.079Z,8.62
2019-03-16T20:36:10.228Z,8.56
2019-03-16T20:39:17.195Z,8.61
2019-03-16T20:42:24.276Z,8.54
2019-03-16T20:45:31.339Z,8.53
2019-03-16T20:48:39.892Z,8.49
2019-03-16T20:51:46.830Z,8.59
2019-03-16T20:54:54.978Z,8.48
2019-03-16T20:58:02.015Z,8.54
2019-03-16T21:01:08.970Z,8.54
2019-03-16T21:04:15.953Z,8.54
2019-03-16T21:07:22.917Z,8.52
2019-03-16T21:10:29.854Z,8.51
2019-03-16T21:13:36.777Z,8.46
2019-03-16T21:16:43.714Z,8.42
2019-03-16T21:19:50.791Z,8.32
2019-03-16T21:22:57.714Z,8.35
2019-03-16T21:26:07.348Z,8.39
2019-03-16T21:29:14.323Z,8.32
2019-03-16T21:32:21.264Z,8.30
2019-03-16T21:35:28.201Z,8.28
2019-03-16T21:38:35.252Z,8.24
2019-03-16T21:41:44.446Z,8.20
2019-03-16T21:44:51.075Z,8.25
2019-03-16T21:48:00.974Z,8.12
2019-03-16T21:51:08.066Z,8.04
2019-03-16T21:54:15.447Z,8.09
2019-03-16T21:57:22.838Z,8.06
2019-03-16T22:00:29.923Z,7.97
2019-03-16T22:03:41.899Z,7.89
2019-03-16T22:06:45.732Z,7.84
2019-03-16T22:09:54.264Z,7.80
2019-03-16T22:13:01.282Z,7.80
2019-03-16T22:16:08.359Z,7.70
2019-03-16T22:19:15.280Z,7.69
2019-03-16T22:22:22.228Z,7.71
2019-03-16T22:25:29.304Z,7.72
2019-03-16T22:28:36.314Z,7.80
2019-03-16T22:31:45.300Z,7.67
2019-03-16T22:34:52.253Z,7.70
2019-03-16T22:37:59.284Z,7.82
2019-03-16T22:41:06.294Z,7.88
2019-03-16T22:44:13.341Z,7.86
2019-03-16T22:47:20.429Z,7.86
2019-03-16T22:50:27.425Z,7.81
2019-03-16T22:53:34.534Z,7.85
2019-03-16T22:56:41.492Z,7.80
2019-03-16T22:59:48.782Z,7.74
2019-03-16T23:03:00.709Z,7.86
2019-03-16T23:06:07.727Z,7.79
2019-03-16T23:09:16.276Z,7.85
2019-03-16T23:12:23.329Z,7.78
2019-03-16T23:15:30.357Z,7.81
2019-03-16T23:18:38.272Z,7.81
2019-03-16T23:21:45.182Z,7.78
2019-03-16T23:24:52.356Z,7.85
2019-03-16T23:28:00.534Z,7.86
2019-03-16T23:31:07.586Z,7.87
2019-03-16T23:34:19.172Z,7.89
2019-03-16T23:37:23.565Z,7.85
2019-03-16T23:40:30.637Z,7.74
2019-03-16T23:43:37.487Z,7.70
2019-03-16T23:46:44.502Z,7.59
2019-03-16T23:49:51.538Z,7.58
2019-03-16T23:52:58.393Z,7.74
2019-03-16T23:56:05.318Z,7.64
2019-03-16T23:59:12.288Z,7.72
